sensor_id;sensor_type;location;lat;lon;timestamp;temperature;humidity
17208;DHT22;8720;48.488;9.202;2022-07-01T00:00:53;18.90;68.60
17208;DHT22;8720;48.488;9.202;2022-07-01T00:03:20;18.90;68.90
17208;DHT22;8720;48.488;9.202;2022-07-01T00:05:48;18.80;69.60
17208;DHT22;8720;48.488;9.202;2022-07-01T00:08:15;18.70;69.10
17208;DHT22;8720;48.488;9.202;2022-07-01T00:10:42;18.70;69.50
17208;DHT22;8720;48.488;9.202;2022-07-01T00:13:10;18.70;69.70
17208;DHT22;8720;48.488;9.202;2022-07-01T00:15:38;18.70;70.00
17208;DHT22;8720;48.488;9.202;2022-07-01T00:18:06;18.70;70.10
17208;DHT22;8720;48.488;9.202;2022-07-01T00:20:33;18.60;70.10
17208;DHT22;8720;48.488;9.202;2022-07-01T00:23:01;18.60;70.20
17208;DHT22;8720;48.488;9.202;2022-07-01T00:25:28;18.60;70.30
17208;DHT22;8720;48.488;9.202;2022-07-01T00:27:55;18.50;70.40
17208;DHT22;8720;48.488;9.202;2022-07-01T00:30:23;18.50;70.60
17208;DHT22;8720;48.488;9.202;2022-07-01T00:32:51;18.50;70.70
17208;DHT22;8720;48.488;9.202;2022-07-01T00:35:19;18.40;70.10
17208;DHT22;8720;48.488;9.202;2022-07-01T00:37:46;18.40;70.10
17208;DHT22;8720;48.488;9.202;2022-07-01T00:40:13;18.40;70.30
17208;DHT22;8720;48.488;9.202;2022-07-01T00:42:41;18.40;70.30
17208;DHT22;8720;48.488;9.202;2022-07-01T00:45:10;18.30;70.30
17208;DHT22;8720;48.488;9.202;2022-07-01T00:47:38;18.30;70.20
17208;DHT22;8720;48.488;9.202;2022-07-01T00:50:11;18.30;70.10
17208;DHT22;8720;48.488;9.202;2022-07-01T00:52:40;18.20;69.90
17208;DHT22;8720;48.488;9.202;2022-07-01T00:55:09;18.20;70.30
17208;DHT22;8720;48.488;9.202;2022-07-01T00:57:40;18.20;70.50
17208;DHT22;8720;48.488;9.202;2022-07-01T01:00:11;18.10;70.50
17208;DHT22;8720;48.488;9.202;2022-07-01T01:02:41;18.10;70.10
17208;DHT22;8720;48.488;9.202;2022-07-01T01:05:10;18.00;70.10
17208;DHT22;8720;48.488;9.202;2022-07-01T01:07:39;18.00;70.50
17208;DHT22;8720;48.488;9.202;2022-07-01T01:10:07;17.90;70.30
17208;DHT22;8720;48.488;9.202;2022-07-01T01:12:35;17.90;70.70
17208;DHT22;8720;48.488;9.202;2022-07-01T01:15:03;17.90;71.10
17208;DHT22;8720;48.488;9.202;2022-07-01T01:17:31;17.80;71.50
17208;DHT22;8720;48.488;9.202;2022-07-01T01:19:58;17.80;71.70
17208;DHT22;8720;48.488;9.202;2022-07-01T01:22:27;17.80;71.70
17208;DHT22;8720;48.488;9.202;2022-07-01T01:24:54;17.80;71.90
17208;DHT22;8720;48.488;9.202;2022-07-01T01:27:24;17.80;72.20
17208;DHT22;8720;48.488;9.202;2022-07-01T01:29:51;17.80;72.60
17208;DHT22;8720;48.488;9.202;2022-07-01T01:32:19;17.80;72.40
17208;DHT22;8720;48.488;9.202;2022-07-01T01:34:47;17.80;72.50
17208;DHT22;8720;48.488;9.202;2022-07-01T01:37:14;17.80;72.60
17208;DHT22;8720;48.488;9.202;2022-07-01T01:39:43;17.80;72.60
17208;DHT22;8720;48.488;9.202;2022-07-01T01:42:10;17.80;72.40
17208;DHT22;8720;48.488;9.202;2022-07-01T01:44:37;17.80;72.60
17208;DHT22;8720;48.488;9.202;2022-07-01T01:47:04;17.80;72.60
17208;DHT22;8720;48.488;9.202;2022-07-01T01:49:32;17.90;73.00
17208;DHT22;8720;48.488;9.202;2022-07-01T01:51:59;17.80;73.00
17208;DHT22;8720;48.488;9.202;2022-07-01T01:54:27;17.80;72.80
17208;DHT22;8720;48.488;9.202;2022-07-01T01:56:56;17.80;72.70
17208;DHT22;8720;48.488;9.202;2022-07-01T01:59:23;17.90;72.60
17208;DHT22;8720;48.488;9.202;2022-07-01T02:01:50;17.90;73.00
17208;DHT22;8720;48.488;9.202;2022-07-01T02:04:18;17.90;73.10
17208;DHT22;8720;48.488;9.202;2022-07-01T02:06:45;17.90;72.60
17208;DHT22;8720;48.488;9.202;2022-07-01T02:09:13;17.90;72.60
17208;DHT22;8720;48.488;9.202;2022-07-01T02:11:40;17.80;72.80
17208;DHT22;8720;48.488;9.202;2022-07-01T02:14:09;17.80;73.00
17208;DHT22;8720;48.488;9.202;2022-07-01T02:16:36;17.80;71.70
17208;DHT22;8720;48.488;9.202;2022-07-01T02:19:04;17.80;72.10
17208;DHT22;8720;48.488;9.202;2022-07-01T02:21:31;17.80;72.50
17208;DHT22;8720;48.488;9.202;2022-07-01T02:23:58;17.80;72.60
17208;DHT22;8720;48.488;9.202;2022-07-01T02:26:25;17.70;72.20
17208;DHT22;8720;48.488;9.202;2022-07-01T02:28:53;17.70;72.50
17208;DHT22;8720;48.488;9.202;2022-07-01T02:31:21;17.70;72.90
17208;DHT22;8720;48.488;9.202;2022-07-01T02:33:48;17.70;72.60
17208;DHT22;8720;48.488;9.202;2022-07-01T02:36:16;17.70;72.00
17208;DHT22;8720;48.488;9.202;2022-07-01T02:38:43;17.70;71.50
17208;DHT22;8720;48.488;9.202;2022-07-01T02:41:10;17.60;71.80
17208;DHT22;8720;48.488;9.202;2022-07-01T02:43:37;17.60;71.40
17208;DHT22;8720;48.488;9.202;2022-07-01T02:46:05;17.50;71.40
17208;DHT22;8720;48.488;9.202;2022-07-01T02:48:33;17.50;71.30
17208;DHT22;8720;48.488;9.202;2022-07-01T02:51:01;17.50;71.20
17208;DHT22;8720;48.488;9.202;2022-07-01T02:53:28;17.50;71.00
17208;DHT22;8720;48.488;9.202;2022-07-01T02:55:55;17.40;70.30
17208;DHT22;8720;48.488;9.202;2022-07-01T02:58:23;17.40;70.70
17208;DHT22;8720;48.488;9.202;2022-07-01T03:00:51;17.30;69.60
17208;DHT22;8720;48.488;9.202;2022-07-01T03:03:19;17.30;69.70
17208;DHT22;8720;48.488;9.202;2022-07-01T03:05:48;17.20;69.90
17208;DHT22;8720;48.488;9.202;2022-07-01T03:08:16;17.20;70.70
17208;DHT22;8720;48.488;9.202;2022-07-01T03:10:43;17.10;71.60
17208;DHT22;8720;48.488;9.202;2022-07-01T03:13:10;17.10;71.80
17208;DHT22;8720;48.488;9.202;2022-07-01T03:15:37;17.10;71.60
17208;DHT22;8720;48.488;9.202;2022-07-01T03:18:05;17.10;72.10
17208;DHT22;8720;48.488;9.202;2022-07-01T03:20:32;17.00;72.10
17208;DHT22;8720;48.488;9.202;2022-07-01T03:23:01;17.00;72.50
17208;DHT22;8720;48.488;9.202;2022-07-01T03:25:28;17.00;72.60
17208;DHT22;8720;48.488;9.202;2022-07-01T03:27:56;17.10;73.00
17208;DHT22;8720;48.488;9.202;2022-07-01T03:30:23;17.00;73.10
17208;DHT22;8720;48.488;9.202;2022-07-01T03:32:50;17.00;72.70
17208;DHT22;8720;48.488;9.202;2022-07-01T03:35:17;17.00;72.80
17208;DHT22;8720;48.488;9.202;2022-07-01T03:38:07;17.10;73.00
17208;DHT22;8720;48.488;9.202;2022-07-01T03:40:34;17.10;73.20
17208;DHT22;8720;48.488;9.202;2022-07-01T03:43:02;17.10;73.00
17208;DHT22;8720;48.488;9.202;2022-07-01T03:45:30;17.10;72.70
17208;DHT22;8720;48.488;9.202;2022-07-01T03:47:58;17.10;72.90
17208;DHT22;8720;48.488;9.202;2022-07-01T03:50:28;17.10;73.20
17208;DHT22;8720;48.488;9.202;2022-07-01T03:52:55;17.10;73.40
17208;DHT22;8720;48.488;9.202;2022-07-01T03:55:41;17.10;74.20
17208;DHT22;8720;48.488;9.202;2022-07-01T03:58:09;17.20;74.30
17208;DHT22;8720;48.488;9.202;2022-07-01T04:00:37;17.20;73.80
17208;DHT22;8720;48.488;9.202;2022-07-01T04:03:06;17.20;73.40
17208;DHT22;8720;48.488;9.202;2022-07-01T04:05:34;17.20;73.40
17208;DHT22;8720;48.488;9.202;2022-07-01T04:08:03;17.20;73.20
17208;DHT22;8720;48.488;9.202;2022-07-01T04:10:32;17.20;73.20
17208;DHT22;8720;48.488;9.202;2022-07-01T04:13:02;17.20;73.00
17208;DHT22;8720;48.488;9.202;2022-07-01T04:15:31;17.20;73.00
17208;DHT22;8720;48.488;9.202;2022-07-01T04:17:59;17.20;72.90
17208;DHT22;8720;48.488;9.202;2022-07-01T04:20:26;17.20;73.20
17208;DHT22;8720;48.488;9.202;2022-07-01T04:22:53;17.20;73.10
17208;DHT22;8720;48.488;9.202;2022-07-01T04:25:21;17.20;73.30
17208;DHT22;8720;48.488;9.202;2022-07-01T04:27:48;17.20;73.20
17208;DHT22;8720;48.488;9.202;2022-07-01T04:30:17;17.10;73.20
17208;DHT22;8720;48.488;9.202;2022-07-01T04:32:44;17.10;73.10
17208;DHT22;8720;48.488;9.202;2022-07-01T04:35:12;17.10;73.40
17208;DHT22;8720;48.488;9.202;2022-07-01T04:37:42;17.10;73.50
17208;DHT22;8720;48.488;9.202;2022-07-01T04:40:09;17.10;73.50
17208;DHT22;8720;48.488;9.202;2022-07-01T04:42:37;17.10;73.50
17208;DHT22;8720;48.488;9.202;2022-07-01T04:45:05;17.10;73.10
17208;DHT22;8720;48.488;9.202;2022-07-01T04:47:34;17.00;74.20
17208;DHT22;8720;48.488;9.202;2022-07-01T04:50:02;17.00;75.60
17208;DHT22;8720;48.488;9.202;2022-07-01T04:52:29;17.00;76.00
17208;DHT22;8720;48.488;9.202;2022-07-01T04:54:56;17.00;75.50
17208;DHT22;8720;48.488;9.202;2022-07-01T04:57:32;17.10;75.00
17208;DHT22;8720;48.488;9.202;2022-07-01T05:00:00;17.10;74.50
17208;DHT22;8720;48.488;9.202;2022-07-01T05:02:27;17.10;73.80
17208;DHT22;8720;48.488;9.202;2022-07-01T05:04:56;17.20;73.80
17208;DHT22;8720;48.488;9.202;2022-07-01T05:07:23;17.20;74.00
17208;DHT22;8720;48.488;9.202;2022-07-01T05:09:57;17.20;73.80
17208;DHT22;8720;48.488;9.202;2022-07-01T05:12:25;17.20;74.00
17208;DHT22;8720;48.488;9.202;2022-07-01T05:14:52;17.20;73.80
17208;DHT22;8720;48.488;9.202;2022-07-01T05:17:20;17.20;73.90
17208;DHT22;8720;48.488;9.202;2022-07-01T05:20:10;17.20;73.50
17208;DHT22;8720;48.488;9.202;2022-07-01T05:22:55;17.20;73.30
17208;DHT22;8720;48.488;9.202;2022-07-01T05:25:22;17.20;74.00
17208;DHT22;8720;48.488;9.202;2022-07-01T05:27:50;17.20;74.10
17208;DHT22;8720;48.488;9.202;2022-07-01T05:30:17;17.10;74.20
17208;DHT22;8720;48.488;9.202;2022-07-01T05:32:45;17.10;74.30
17208;DHT22;8720;48.488;9.202;2022-07-01T05:35:13;17.10;74.50
17208;DHT22;8720;48.488;9.202;2022-07-01T05:37:41;17.10;74.30
17208;DHT22;8720;48.488;9.202;2022-07-01T05:40:09;17.10;74.60
17208;DHT22;8720;48.488;9.202;2022-07-01T05:42:37;17.10;74.20
17208;DHT22;8720;48.488;9.202;2022-07-01T05:45:06;17.10;74.00
17208;DHT22;8720;48.488;9.202;2022-07-01T05:47:34;17.10;73.60
17208;DHT22;8720;48.488;9.202;2022-07-01T05:50:01;17.10;74.20
17208;DHT22;8720;48.488;9.202;2022-07-01T05:52:29;17.10;74.80
17208;DHT22;8720;48.488;9.202;2022-07-01T05:54:57;17.10;74.20
17208;DHT22;8720;48.488;9.202;2022-07-01T05:57:24;17.10;74.30
17208;DHT22;8720;48.488;9.202;2022-07-01T05:59:51;17.10;74.20
17208;DHT22;8720;48.488;9.202;2022-07-01T06:02:18;17.10;74.10
17208;DHT22;8720;48.488;9.202;2022-07-01T06:04:46;17.10;73.90
17208;DHT22;8720;48.488;9.202;2022-07-01T06:07:13;17.10;74.30
17208;DHT22;8720;48.488;9.202;2022-07-01T06:09:42;17.10;74.60
17208;DHT22;8720;48.488;9.202;2022-07-01T06:12:09;17.10;74.40
17208;DHT22;8720;48.488;9.202;2022-07-01T06:14:36;17.20;74.40
17208;DHT22;8720;48.488;9.202;2022-07-01T06:17:04;17.20;74.70
17208;DHT22;8720;48.488;9.202;2022-07-01T06:19:31;17.20;75.00
17208;DHT22;8720;48.488;9.202;2022-07-01T06:21:59;17.20;74.50
17208;DHT22;8720;48.488;9.202;2022-07-01T06:24:26;17.20;74.30
17208;DHT22;8720;48.488;9.202;2022-07-01T06:26:55;17.20;74.50
17208;DHT22;8720;48.488;9.202;2022-07-01T06:29:22;17.20;74.30
17208;DHT22;8720;48.488;9.202;2022-07-01T06:31:49;17.30;74.50
17208;DHT22;8720;48.488;9.202;2022-07-01T06:34:16;17.30;74.70
17208;DHT22;8720;48.488;9.202;2022-07-01T06:36:44;17.30;75.00
17208;DHT22;8720;48.488;9.202;2022-07-01T06:39:11;17.30;75.20
17208;DHT22;8720;48.488;9.202;2022-07-01T06:41:38;17.30;75.30
17208;DHT22;8720;48.488;9.202;2022-07-01T06:44:07;17.30;75.10
17208;DHT22;8720;48.488;9.202;2022-07-01T06:46:34;17.40;75.20
17208;DHT22;8720;48.488;9.202;2022-07-01T06:49:02;17.40;75.30
17208;DHT22;8720;48.488;9.202;2022-07-01T06:51:29;17.50;75.60
17208;DHT22;8720;48.488;9.202;2022-07-01T06:53:57;17.50;75.70
17208;DHT22;8720;48.488;9.202;2022-07-01T06:56:24;17.50;74.90
17208;DHT22;8720;48.488;9.202;2022-07-01T06:58:52;17.60;74.60
17208;DHT22;8720;48.488;9.202;2022-07-01T07:01:21;17.60;74.00
17208;DHT22;8720;48.488;9.202;2022-07-01T07:03:49;17.60;73.20
17208;DHT22;8720;48.488;9.202;2022-07-01T07:06:17;17.60;73.60
17208;DHT22;8720;48.488;9.202;2022-07-01T07:08:44;17.60;73.80
17208;DHT22;8720;48.488;9.202;2022-07-01T07:11:11;17.60;73.70
17208;DHT22;8720;48.488;9.202;2022-07-01T07:13:40;17.60;73.70
17208;DHT22;8720;48.488;9.202;2022-07-01T07:16:08;17.60;73.70
17208;DHT22;8720;48.488;9.202;2022-07-01T07:18:37;17.60;73.80
17208;DHT22;8720;48.488;9.202;2022-07-01T07:21:04;17.60;73.60
17208;DHT22;8720;48.488;9.202;2022-07-01T07:23:32;17.60;73.70
17208;DHT22;8720;48.488;9.202;2022-07-01T07:25:59;17.60;74.00
17208;DHT22;8720;48.488;9.202;2022-07-01T07:28:26;17.60;73.70
17208;DHT22;8720;48.488;9.202;2022-07-01T07:30:54;17.60;73.70
17208;DHT22;8720;48.488;9.202;2022-07-01T07:33:21;17.60;73.10
17208;DHT22;8720;48.488;9.202;2022-07-01T07:35:50;17.60;72.90
17208;DHT22;8720;48.488;9.202;2022-07-01T07:38:17;17.60;72.50
17208;DHT22;8720;48.488;9.202;2022-07-01T07:40:45;17.60;73.30
17208;DHT22;8720;48.488;9.202;2022-07-01T07:43:12;17.60;72.90
17208;DHT22;8720;48.488;9.202;2022-07-01T07:45:40;17.60;72.80
17208;DHT22;8720;48.488;9.202;2022-07-01T07:48:07;17.60;71.90
17208;DHT22;8720;48.488;9.202;2022-07-01T07:50:35;17.60;71.60
17208;DHT22;8720;48.488;9.202;2022-07-01T07:53:04;17.60;71.70
17208;DHT22;8720;48.488;9.202;2022-07-01T07:55:32;17.60;71.50
17208;DHT22;8720;48.488;9.202;2022-07-01T07:57:59;17.60;72.10
17208;DHT22;8720;48.488;9.202;2022-07-01T08:00:26;17.60;72.50
17208;DHT22;8720;48.488;9.202;2022-07-01T08:02:54;17.60;71.90
17208;DHT22;8720;48.488;9.202;2022-07-01T08:05:21;17.50;70.90
17208;DHT22;8720;48.488;9.202;2022-07-01T08:07:49;17.50;70.60
17208;DHT22;8720;48.488;9.202;2022-07-01T08:10:17;17.50;70.70
17208;DHT22;8720;48.488;9.202;2022-07-01T08:12:45;17.50;70.70
17208;DHT22;8720;48.488;9.202;2022-07-01T08:15:12;17.40;71.30
17208;DHT22;8720;48.488;9.202;2022-07-01T08:17:40;17.40;71.20
17208;DHT22;8720;48.488;9.202;2022-07-01T08:20:08;17.40;72.10
17208;DHT22;8720;48.488;9.202;2022-07-01T08:22:36;17.50;73.30
17208;DHT22;8720;48.488;9.202;2022-07-01T08:25:04;17.40;72.80
17208;DHT22;8720;48.488;9.202;2022-07-01T08:27:33;17.50;72.50
17208;DHT22;8720;48.488;9.202;2022-07-01T08:30:01;17.50;71.70
17208;DHT22;8720;48.488;9.202;2022-07-01T08:32:28;17.50;71.90
17208;DHT22;8720;48.488;9.202;2022-07-01T08:34:56;17.50;71.70
17208;DHT22;8720;48.488;9.202;2022-07-01T08:37:24;17.50;71.70
17208;DHT22;8720;48.488;9.202;2022-07-01T08:39:51;17.50;72.40
17208;DHT22;8720;48.488;9.202;2022-07-01T08:42:19;17.50;72.20
17208;DHT22;8720;48.488;9.202;2022-07-01T08:44:47;17.50;72.10
17208;DHT22;8720;48.488;9.202;2022-07-01T08:47:15;17.50;71.60
17208;DHT22;8720;48.488;9.202;2022-07-01T08:49:42;17.50;72.50
17208;DHT22;8720;48.488;9.202;2022-07-01T08:52:10;17.50;72.90
17208;DHT22;8720;48.488;9.202;2022-07-01T08:54:38;17.50;72.70
17208;DHT22;8720;48.488;9.202;2022-07-01T08:57:07;17.50;72.50
17208;DHT22;8720;48.488;9.202;2022-07-01T08:59:35;17.50;71.80
17208;DHT22;8720;48.488;9.202;2022-07-01T09:02:05;17.60;71.90
17208;DHT22;8720;48.488;9.202;2022-07-01T09:04:33;17.60;71.40
17208;DHT22;8720;48.488;9.202;2022-07-01T09:07:04;17.60;71.70
17208;DHT22;8720;48.488;9.202;2022-07-01T09:09:34;17.60;71.70
17208;DHT22;8720;48.488;9.202;2022-07-01T09:12:04;17.60;72.50
17208;DHT22;8720;48.488;9.202;2022-07-01T09:14:33;17.60;72.00
17208;DHT22;8720;48.488;9.202;2022-07-01T09:17:04;17.60;70.90
17208;DHT22;8720;48.488;9.202;2022-07-01T09:19:34;17.60;71.10
17208;DHT22;8720;48.488;9.202;2022-07-01T09:22:03;17.60;70.90
17208;DHT22;8720;48.488;9.202;2022-07-01T09:24:33;17.60;71.10
17208;DHT22;8720;48.488;9.202;2022-07-01T09:27:03;17.60;70.40
17208;DHT22;8720;48.488;9.202;2022-07-01T09:29:37;17.60;70.40
17208;DHT22;8720;48.488;9.202;2022-07-01T09:32:10;17.60;70.90
17208;DHT22;8720;48.488;9.202;2022-07-01T09:34:41;17.60;70.50
17208;DHT22;8720;48.488;9.202;2022-07-01T09:37:11;17.60;69.50
17208;DHT22;8720;48.488;9.202;2022-07-01T09:39:43;17.50;68.90
17208;DHT22;8720;48.488;9.202;2022-07-01T09:42:12;17.50;68.60
17208;DHT22;8720;48.488;9.202;2022-07-01T09:44:54;17.40;69.70
17208;DHT22;8720;48.488;9.202;2022-07-01T09:47:24;17.30;69.30
17208;DHT22;8720;48.488;9.202;2022-07-01T09:49:53;17.30;70.60
17208;DHT22;8720;48.488;9.202;2022-07-01T09:52:22;17.30;71.90
17208;DHT22;8720;48.488;9.202;2022-07-01T09:54:51;17.20;72.40
17208;DHT22;8720;48.488;9.202;2022-07-01T09:57:20;17.20;72.20
17208;DHT22;8720;48.488;9.202;2022-07-01T09:59:49;17.20;72.60
17208;DHT22;8720;48.488;9.202;2022-07-01T10:02:19;17.20;72.10
17208;DHT22;8720;48.488;9.202;2022-07-01T10:04:51;17.20;72.30
17208;DHT22;8720;48.488;9.202;2022-07-01T10:07:30;17.20;73.00
17208;DHT22;8720;48.488;9.202;2022-07-01T10:10:23;17.20;72.80
17208;DHT22;8720;48.488;9.202;2022-07-01T10:13:06;17.30;72.90
17208;DHT22;8720;48.488;9.202;2022-07-01T10:15:37;17.40;73.60
17208;DHT22;8720;48.488;9.202;2022-07-01T10:18:19;17.40;73.90
17208;DHT22;8720;48.488;9.202;2022-07-01T10:20:49;17.50;72.10
17208;DHT22;8720;48.488;9.202;2022-07-01T10:23:20;17.60;73.00
17208;DHT22;8720;48.488;9.202;2022-07-01T10:25:49;17.70;73.80
17208;DHT22;8720;48.488;9.202;2022-07-01T10:28:21;17.80;74.00
17208;DHT22;8720;48.488;9.202;2022-07-01T10:30:51;17.90;73.40
17208;DHT22;8720;48.488;9.202;2022-07-01T10:33:47;18.00;73.00
17208;DHT22;8720;48.488;9.202;2022-07-01T10:36:24;18.10;71.70
17208;DHT22;8720;48.488;9.202;2022-07-01T10:39:13;18.20;72.40
17208;DHT22;8720;48.488;9.202;2022-07-01T10:41:59;18.20;70.70
17208;DHT22;8720;48.488;9.202;2022-07-01T10:44:28;18.20;70.70
17208;DHT22;8720;48.488;9.202;2022-07-01T10:47:03;18.30;71.90
17208;DHT22;8720;48.488;9.202;2022-07-01T10:49:54;18.30;71.60
17208;DHT22;8720;48.488;9.202;2022-07-01T10:52:25;18.30;69.90
17208;DHT22;8720;48.488;9.202;2022-07-01T10:54:55;18.30;71.30
17208;DHT22;8720;48.488;9.202;2022-07-01T10:57:28;18.30;72.10
17208;DHT22;8720;48.488;9.202;2022-07-01T11:00:32;18.40;70.30
17208;DHT22;8720;48.488;9.202;2022-07-01T11:03:16;18.40;69.50
17208;DHT22;8720;48.488;9.202;2022-07-01T11:05:47;18.40;70.00
17208;DHT22;8720;48.488;9.202;2022-07-01T11:08:18;18.40;71.10
17208;DHT22;8720;48.488;9.202;2022-07-01T11:10:50;18.50;70.70
17208;DHT22;8720;48.488;9.202;2022-07-01T11:13:21;18.40;70.30
17208;DHT22;8720;48.488;9.202;2022-07-01T11:15:48;18.50;71.80
17208;DHT22;8720;48.488;9.202;2022-07-01T11:18:18;18.50;70.70
17208;DHT22;8720;48.488;9.202;2022-07-01T11:20:46;18.60;69.70
17208;DHT22;8720;48.488;9.202;2022-07-01T11:23:13;18.60;70.40
17208;DHT22;8720;48.488;9.202;2022-07-01T11:25:43;18.70;70.00
17208;DHT22;8720;48.488;9.202;2022-07-01T11:28:11;18.80;69.10
17208;DHT22;8720;48.488;9.202;2022-07-01T11:30:39;18.90;70.20
17208;DHT22;8720;48.488;9.202;2022-07-01T11:33:08;19.00;69.60
17208;DHT22;8720;48.488;9.202;2022-07-01T11:35:36;19.10;68.20
17208;DHT22;8720;48.488;9.202;2022-07-01T11:38:23;19.20;68.90
17208;DHT22;8720;48.488;9.202;2022-07-01T11:41:18;19.30;69.00
17208;DHT22;8720;48.488;9.202;2022-07-01T11:43:46;19.40;65.70
17208;DHT22;8720;48.488;9.202;2022-07-01T11:46:14;19.50;68.40
17208;DHT22;8720;48.488;9.202;2022-07-01T11:48:43;19.60;67.10
17208;DHT22;8720;48.488;9.202;2022-07-01T11:51:15;19.70;66.10
17208;DHT22;8720;48.488;9.202;2022-07-01T11:53:44;19.80;66.60
17208;DHT22;8720;48.488;9.202;2022-07-01T11:56:14;19.90;66.80
17208;DHT22;8720;48.488;9.202;2022-07-01T11:58:52;20.00;65.90
17208;DHT22;8720;48.488;9.202;2022-07-01T12:01:21;20.10;66.40
17208;DHT22;8720;48.488;9.202;2022-07-01T12:03:50;20.20;67.50
17208;DHT22;8720;48.488;9.202;2022-07-01T12:06:18;20.40;66.70
17208;DHT22;8720;48.488;9.202;2022-07-01T12:08:47;20.50;66.30
17208;DHT22;8720;48.488;9.202;2022-07-01T12:11:17;20.60;65.80
17208;DHT22;8720;48.488;9.202;2022-07-01T12:13:48;20.80;64.80
17208;DHT22;8720;48.488;9.202;2022-07-01T12:16:16;20.90;65.40
17208;DHT22;8720;48.488;9.202;2022-07-01T12:18:52;21.00;64.70
17208;DHT22;8720;48.488;9.202;2022-07-01T12:21:22;21.20;62.80
17208;DHT22;8720;48.488;9.202;2022-07-01T12:24:04;21.30;63.60
17208;DHT22;8720;48.488;9.202;2022-07-01T12:26:35;21.40;60.70
17208;DHT22;8720;48.488;9.202;2022-07-01T12:29:13;21.60;62.80
17208;DHT22;8720;48.488;9.202;2022-07-01T12:31:41;21.70;63.60
17208;DHT22;8720;48.488;9.202;2022-07-01T12:34:10;21.90;62.50
17208;DHT22;8720;48.488;9.202;2022-07-01T12:36:37;22.00;61.90
17208;DHT22;8720;48.488;9.202;2022-07-01T12:39:14;22.00;60.90
17208;DHT22;8720;48.488;9.202;2022-07-01T12:41:49;22.10;61.30
17208;DHT22;8720;48.488;9.202;2022-07-01T12:44:21;22.20;57.60
17208;DHT22;8720;48.488;9.202;2022-07-01T12:46:50;22.30;58.30
17208;DHT22;8720;48.488;9.202;2022-07-01T12:49:22;22.40;60.20
17208;DHT22;8720;48.488;9.202;2022-07-01T12:51:52;22.50;58.20
17208;DHT22;8720;48.488;9.202;2022-07-01T12:54:29;22.50;59.80
17208;DHT22;8720;48.488;9.202;2022-07-01T12:56:59;22.60;57.60
17208;DHT22;8720;48.488;9.202;2022-07-01T12:59:27;22.60;58.70
17208;DHT22;8720;48.488;9.202;2022-07-01T13:01:55;22.70;58.10
17208;DHT22;8720;48.488;9.202;2022-07-01T13:04:27;22.70;57.30
17208;DHT22;8720;48.488;9.202;2022-07-01T13:06:55;22.70;56.30
17208;DHT22;8720;48.488;9.202;2022-07-01T13:09:23;22.60;56.70
17208;DHT22;8720;48.488;9.202;2022-07-01T13:11:50;22.50;56.90
17208;DHT22;8720;48.488;9.202;2022-07-01T13:14:19;22.40;57.00
17208;DHT22;8720;48.488;9.202;2022-07-01T13:16:46;22.40;56.10
17208;DHT22;8720;48.488;9.202;2022-07-01T13:19:13;22.30;57.20
17208;DHT22;8720;48.488;9.202;2022-07-01T13:21:41;22.30;56.90
17208;DHT22;8720;48.488;9.202;2022-07-01T13:24:08;22.30;57.10
17208;DHT22;8720;48.488;9.202;2022-07-01T13:26:38;22.40;57.20
17208;DHT22;8720;48.488;9.202;2022-07-01T13:29:07;22.40;56.30
17208;DHT22;8720;48.488;9.202;2022-07-01T13:31:35;22.40;57.20
17208;DHT22;8720;48.488;9.202;2022-07-01T13:34:03;22.50;56.50
17208;DHT22;8720;48.488;9.202;2022-07-01T13:36:30;22.50;55.60
17208;DHT22;8720;48.488;9.202;2022-07-01T13:38:58;22.60;55.70
17208;DHT22;8720;48.488;9.202;2022-07-01T13:41:25;22.60;56.10
17208;DHT22;8720;48.488;9.202;2022-07-01T13:43:52;22.70;56.30
17208;DHT22;8720;48.488;9.202;2022-07-01T13:46:20;22.80;56.40
17208;DHT22;8720;48.488;9.202;2022-07-01T13:48:49;22.80;56.30
17208;DHT22;8720;48.488;9.202;2022-07-01T13:51:16;22.90;55.50
17208;DHT22;8720;48.488;9.202;2022-07-01T13:53:44;23.00;56.20
17208;DHT22;8720;48.488;9.202;2022-07-01T13:56:11;23.00;55.80
17208;DHT22;8720;48.488;9.202;2022-07-01T13:58:38;23.10;56.20
17208;DHT22;8720;48.488;9.202;2022-07-01T14:01:06;23.10;56.60
17208;DHT22;8720;48.488;9.202;2022-07-01T14:03:33;23.20;56.50
17208;DHT22;8720;48.488;9.202;2022-07-01T14:06:02;23.30;55.80
17208;DHT22;8720;48.488;9.202;2022-07-01T14:08:29;23.40;54.30
17208;DHT22;8720;48.488;9.202;2022-07-01T14:10:57;23.50;54.80
17208;DHT22;8720;48.488;9.202;2022-07-01T14:13:24;23.50;54.70
17208;DHT22;8720;48.488;9.202;2022-07-01T14:18:26;23.60;55.10
17208;DHT22;8720;48.488;9.202;2022-07-01T14:20:54;23.60;54.60
17208;DHT22;8720;48.488;9.202;2022-07-01T14:23:23;23.60;54.30
17208;DHT22;8720;48.488;9.202;2022-07-01T14:25:50;23.70;52.90
17208;DHT22;8720;48.488;9.202;2022-07-01T14:28:18;23.60;52.80
17208;DHT22;8720;48.488;9.202;2022-07-01T14:30:45;23.50;53.20
17208;DHT22;8720;48.488;9.202;2022-07-01T14:33:15;23.40;53.50
17208;DHT22;8720;48.488;9.202;2022-07-01T14:35:44;23.40;53.20
17208;DHT22;8720;48.488;9.202;2022-07-01T14:38:11;23.40;52.90
17208;DHT22;8720;48.488;9.202;2022-07-01T14:40:41;23.30;53.00
17208;DHT22;8720;48.488;9.202;2022-07-01T14:43:09;23.30;52.50
17208;DHT22;8720;48.488;9.202;2022-07-01T14:45:36;23.30;53.60
17208;DHT22;8720;48.488;9.202;2022-07-01T14:48:04;23.40;53.60
17208;DHT22;8720;48.488;9.202;2022-07-01T14:50:31;23.40;53.50
17208;DHT22;8720;48.488;9.202;2022-07-01T14:52:59;23.50;53.50
17208;DHT22;8720;48.488;9.202;2022-07-01T14:55:30;23.50;53.40
17208;DHT22;8720;48.488;9.202;2022-07-01T14:57:59;23.60;52.20
17208;DHT22;8720;48.488;9.202;2022-07-01T15:00:26;23.70;52.60
17208;DHT22;8720;48.488;9.202;2022-07-01T15:02:54;23.70;52.80
17208;DHT22;8720;48.488;9.202;2022-07-01T15:05:22;23.80;53.50
17208;DHT22;8720;48.488;9.202;2022-07-01T15:07:50;23.70;52.30
17208;DHT22;8720;48.488;9.202;2022-07-01T15:10:17;23.70;52.20
17208;DHT22;8720;48.488;9.202;2022-07-01T15:12:45;23.70;52.20
17208;DHT22;8720;48.488;9.202;2022-07-01T15:15:13;23.70;51.90
17208;DHT22;8720;48.488;9.202;2022-07-01T15:17:43;23.70;52.00
17208;DHT22;8720;48.488;9.202;2022-07-01T15:20:14;23.70;51.80
17208;DHT22;8720;48.488;9.202;2022-07-01T15:22:43;23.70;51.70
17208;DHT22;8720;48.488;9.202;2022-07-01T15:25:11;23.70;52.20
17208;DHT22;8720;48.488;9.202;2022-07-01T15:27:39;23.70;52.00
17208;DHT22;8720;48.488;9.202;2022-07-01T15:30:07;23.70;51.60
17208;DHT22;8720;48.488;9.202;2022-07-01T15:32:43;23.70;51.20
17208;DHT22;8720;48.488;9.202;2022-07-01T15:35:13;23.60;50.80
17208;DHT22;8720;48.488;9.202;2022-07-01T15:37:40;23.70;51.80
17208;DHT22;8720;48.488;9.202;2022-07-01T15:40:08;23.60;51.70
17208;DHT22;8720;48.488;9.202;2022-07-01T15:42:36;23.60;51.80
17208;DHT22;8720;48.488;9.202;2022-07-01T15:45:05;23.70;51.90
17208;DHT22;8720;48.488;9.202;2022-07-01T15:47:33;23.70;51.70
17208;DHT22;8720;48.488;9.202;2022-07-01T15:50:20;23.70;51.70
17208;DHT22;8720;48.488;9.202;2022-07-01T15:52:49;23.70;50.90
17208;DHT22;8720;48.488;9.202;2022-07-01T15:55:17;23.70;51.40
17208;DHT22;8720;48.488;9.202;2022-07-01T15:57:44;23.70;51.40
17208;DHT22;8720;48.488;9.202;2022-07-01T16:00:13;23.70;51.50